createdAt,value
2022-08-07T00:00:36.456Z,98687.31
2022-08-07T00:03:08.580Z,98688.50
2022-08-07T00:05:36.297Z,98687.34
2022-08-07T00:08:04.865Z,98690.50
2022-08-07T00:10:32.144Z,98688.63
2022-08-07T00:13:09.587Z,98688.91
2022-08-07T00:15:46.780Z,98692.44
2022-08-07T00:18:28.466Z,98696.16
2022-08-07T00:21:01.838Z,98684.97
2022-08-07T00:23:31.801Z,98683.06
2022-08-07T00:26:13.064Z,98681.09
2022-08-07T00:28:55.338Z,98682.25
2022-08-07T00:31:22.355Z,98679.97
2022-08-07T00:33:48.939Z,98685.38
2022-08-07T00:36:16.955Z,98677.41
2022-08-07T00:38:43.825Z,98684.53
2022-08-07T00:41:14.914Z,98687.34
2022-08-07T00:44:01.847Z,98685.47
2022-08-07T00:46:30.228Z,98682.47
2022-08-07T00:49:02.142Z,98684.88
2022-08-07T00:51:56.938Z,98684.88
2022-08-07T00:54:19.711Z,98685.63
2022-08-07T00:56:49.555Z,98674.00
2022-08-07T00:59:17.491Z,98673.22
2022-08-07T01:01:48.528Z,98677.91
2022-08-07T01:04:24.703Z,98676.38
2022-08-07T01:06:51.568Z,98668.59
2022-08-07T01:10:03.869Z,98680.34
2022-08-07T01:12:28.304Z,98677.66
2022-08-07T01:15:01.197Z,98676.94
2022-08-07T01:17:31.020Z,98680.47
2022-08-07T01:20:04.852Z,98671.69
2022-08-07T01:22:33.298Z,98670.28
2022-08-07T01:25:00.926Z,98662.88
2022-08-07T01:27:32.272Z,98670.97
2022-08-07T01:30:00.482Z,98662.88
2022-08-07T01:32:28.199Z,98663.34
2022-08-07T01:34:56.207Z,98660.25
2022-08-07T01:37:24.700Z,98661.91
2022-08-07T01:39:52.272Z,98657.50
2022-08-07T01:42:40.074Z,98662.88
2022-08-07T01:45:15.926Z,98666.84
2022-08-07T01:48:29.930Z,98673.78
2022-08-07T01:50:32.804Z,98660.00
2022-08-07T01:53:08.909Z,98667.69
2022-08-07T01:55:44.672Z,98676.63
2022-08-07T01:58:29.706Z,98656.91
2022-08-07T02:01:09.838Z,98668.78
2022-08-07T02:03:50.507Z,98667.50
2022-08-07T02:06:31.558Z,98664.28
2022-08-07T02:09:04.227Z,98666.44
2022-08-07T02:12:02.889Z,98658.47
2022-08-07T02:14:40.357Z,98666.78
2022-08-07T02:17:09.494Z,98665.25
2022-08-07T02:20:05.551Z,98673.78
2022-08-07T02:22:30.649Z,98648.69
2022-08-07T02:24:58.201Z,98676.03
2022-08-07T02:27:34.354Z,98679.84
2022-08-07T02:30:07.334Z,98682.41
2022-08-07T02:32:39.617Z,98673.91
2022-08-07T02:36:30.134Z,98685.50
2022-08-07T02:38:14.715Z,98664.56
2022-08-07T02:40:46.453Z,98688.50
2022-08-07T02:43:15.509Z,98693.06
2022-08-07T02:45:58.102Z,98689.66
2022-08-07T02:48:26.251Z,98691.19
2022-08-07T02:50:56.903Z,98686.97
2022-08-07T02:53:30.858Z,98692.88
2022-08-07T02:56:06.502Z,98681.84
2022-08-07T02:58:47.471Z,98687.50
2022-08-07T03:01:19.156Z,98684.53
2022-08-07T03:04:06.888Z,98681.69
2022-08-07T03:06:35.084Z,98689.09
2022-08-07T03:09:03.677Z,98694.78
2022-08-07T03:11:32.735Z,98695.66
2022-08-07T03:14:01.608Z,98694.09
2022-08-07T03:16:30.491Z,98650.44
2022-08-07T03:18:59.301Z,98681.91
2022-08-07T03:21:27.536Z,98689.88
2022-08-07T03:24:19.695Z,98682.34
2022-08-07T03:26:53.588Z,98687.28
2022-08-07T03:29:28.214Z,98677.38
2022-08-07T03:31:56.110Z,98683.81
2022-08-07T03:34:27.276Z,98687.31
2022-08-07T03:36:57.371Z,98672.16
2022-08-07T03:39:59.655Z,98687.66
2022-08-07T03:42:14.270Z,98688.50
2022-08-07T03:44:41.686Z,98689.91
2022-08-07T03:47:11.242Z,98688.75
2022-08-07T03:49:47.764Z,98690.34
2022-08-07T03:52:22.715Z,98698.25
2022-08-07T03:55:06.771Z,98704.06
2022-08-07T03:58:35.501Z,98700.38
2022-08-07T04:00:30.560Z,98714.44
2022-08-07T04:03:04.020Z,98711.63
2022-08-07T04:05:40.332Z,98711.63
2022-08-07T04:08:13.190Z,98707.91
2022-08-07T04:10:54.276Z,98696.16
2022-08-07T04:14:10.160Z,98729.16
2022-08-07T04:16:19.753Z,98730.44
2022-08-07T04:19:01.804Z,98742.34
2022-08-07T04:21:33.316Z,98742.19
2022-08-07T04:24:07.297Z,98744.59
2022-08-07T04:26:34.828Z,98736.81
2022-08-07T04:29:02.974Z,98741.50
2022-08-07T04:31:38.933Z,98750.59
2022-08-07T04:34:24.100Z,98742.50
2022-08-07T04:36:54.779Z,98749.72
2022-08-07T04:39:25.873Z,98741.44
2022-08-07T04:41:52.756Z,98753.13
2022-08-07T04:44:20.839Z,98733.22
2022-08-07T04:47:09.585Z,98757.63
2022-08-07T04:49:57.372Z,98745.69
2022-08-07T04:53:09.180Z,98750.19
2022-08-07T04:58:12.230Z,98759.28
2022-08-07T05:00:11.270Z,98749.84
2022-08-07T05:02:16.894Z,98752.25
2022-08-07T05:05:52.014Z,98754.84
2022-08-07T05:08:04.711Z,98746.06
2022-08-07T05:10:37.474Z,98745.09
2022-08-07T05:14:55.449Z,98748.03
2022-08-07T05:16:04.499Z,98747.78
2022-08-07T05:18:35.547Z,98759.84
2022-08-07T05:21:04.723Z,98759.97
2022-08-07T05:23:57.256Z,98726.25
2022-08-07T05:26:27.510Z,98754.91
2022-08-07T05:28:59.551Z,98764.53
2022-08-07T05:31:38.616Z,98766.94
2022-08-07T05:34:11.003Z,98773.63
2022-08-07T05:36:39.770Z,98767.94
2022-08-07T05:39:08.959Z,98765.34
2022-08-07T05:42:01.750Z,98771.75
2022-08-07T05:44:31.257Z,98775.09
2022-08-07T05:47:01.227Z,98779.72
2022-08-07T05:49:40.639Z,98771.97
2022-08-07T05:52:11.456Z,98775.72
2022-08-07T05:54:44.407Z,98780.63
2022-08-07T05:57:21.298Z,98772.44
2022-08-07T05:59:57.839Z,98772.19
2022-08-07T06:02:29.707Z,98776.44
2022-08-07T06:05:03.621Z,98768.81
2022-08-07T06:08:14.818Z,98769.22
2022-08-07T06:10:18.534Z,98759.72
2022-08-07T06:12:46.139Z,98775.09
2022-08-07T06:15:16.245Z,98772.13
2022-08-07T06:17:53.620Z,98781.38
2022-08-07T06:20:49.862Z,98788.06
2022-08-07T06:23:46.765Z,98777.03
2022-08-07T06:26:00.423Z,98785.84
2022-08-07T06:28:28.282Z,98792.34
2022-08-07T06:30:56.384Z,98796.28
2022-08-07T06:33:25.519Z,98800.56
2022-08-07T06:36:11.794Z,98796.47
2022-08-07T06:38:39.215Z,98794.75
2022-08-07T06:41:59.177Z,98805.50
2022-08-07T06:44:13.228Z,98813.22
2022-08-07T06:46:43.131Z,98805.03
2022-08-07T06:49:20.563Z,98825.75
2022-08-07T06:51:50.023Z,98821.53
2022-08-07T06:55:31.763Z,98832.78
2022-08-07T06:57:08.247Z,98824.94
2022-08-07T07:00:13.059Z,98820.75
2022-08-07T07:02:53.320Z,98819.00
2022-08-07T07:06:03.413Z,98810.09
2022-08-07T07:08:07.099Z,98809.13
2022-08-07T07:10:36.755Z,98803.84
2022-08-07T07:13:55.742Z,98801.25
2022-08-07T07:16:09.666Z,98812.59
2022-08-07T07:18:47.990Z,98806.97
2022-08-07T07:21:27.278Z,98792.59
2022-08-07T07:24:12.587Z,98799.44
2022-08-07T07:26:41.108Z,98805.50
2022-08-07T07:29:40.185Z,98806.34
2022-08-07T07:32:12.791Z,98807.44
2022-08-07T07:34:48.665Z,98802.03
2022-08-07T07:37:44.277Z,98802.34
2022-08-07T07:40:10.375Z,98789.72
2022-08-07T07:42:50.916Z,98800.97
2022-08-07T07:46:37.327Z,98803.59
2022-08-07T07:48:35.072Z,98794.34
2022-08-07T07:51:02.779Z,98795.50
2022-08-07T07:53:51.873Z,98795.41
2022-08-07T07:56:30.679Z,98805.34
2022-08-07T07:59:02.047Z,98804.63
2022-08-07T08:02:03.465Z,98804.53
2022-08-07T08:04:20.143Z,98800.88
2022-08-07T08:06:54.055Z,98807.38
2022-08-07T08:09:24.295Z,98800.19
2022-08-07T08:12:02.733Z,98810.50
2022-08-07T08:14:36.406Z,98802.75
2022-08-07T08:18:36.984Z,98803.88
2022-08-07T08:20:18.779Z,98801.88
2022-08-07T08:23:06.467Z,98802.50
2022-08-07T08:25:56.777Z,98791.50
2022-08-07T08:28:38.540Z,98800.41
2022-08-07T08:31:14.647Z,98797.59
2022-08-07T08:33:43.844Z,98796.19
2022-08-07T08:36:18.534Z,98798.41
2022-08-07T08:38:56.228Z,98795.91
2022-08-07T08:41:58.220Z,98794.22
2022-08-07T08:44:44.765Z,98805.91
2022-08-07T08:48:16.791Z,98811.31
2022-08-07T08:50:52.379Z,98768.38
2022-08-07T08:53:47.144Z,98804.94
2022-08-07T08:56:24.650Z,98809.50
2022-08-07T08:59:24.679Z,98808.03
2022-08-07T09:02:04.665Z,98787.53
2022-08-07T09:04:38.342Z,98795.91
2022-08-07T09:07:46.195Z,98795.88
2022-08-07T09:10:32.447Z,98791.13
2022-08-07T09:13:11.256Z,98790.78
2022-08-07T09:16:24.459Z,98789.25
2022-08-07T09:19:07.000Z,98787.78
2022-08-07T09:22:10.176Z,98784.88
2022-08-07T09:24:59.687Z,98787.41
2022-08-07T09:27:59.796Z,98781.59
2022-08-07T09:30:54.741Z,98772.00
2022-08-07T09:33:52.746Z,98767.94
2022-08-07T09:36:35.390Z,98769.84
2022-08-07T09:39:53.093Z,98753.53
2022-08-07T09:42:07.906Z,98761.09
2022-08-07T09:47:27.737Z,98775.16
2022-08-07T09:48:21.507Z,98773.81
2022-08-07T09:52:15.482Z,98766.09
2022-08-07T09:54:22.897Z,98773.47
2022-08-07T09:57:12.921Z,98768.72
2022-08-07T10:00:03.739Z,98768.13
2022-08-07T10:02:33.832Z,98763.94
2022-08-07T10:05:59.875Z,98754.31
2022-08-07T10:08:55.438Z,98752.53
2022-08-07T10:12:02.326Z,98754.09
2022-08-07T10:14:55.315Z,98746.97
2022-08-07T10:18:01.456Z,98746.66
2022-08-07T10:20:50.381Z,98740.75
2022-08-07T10:24:05.439Z,98735.88
2022-08-07T10:26:27.663Z,98738.91
2022-08-07T10:29:15.561Z,98734.13
2022-08-07T10:31:58.030Z,98726.84
2022-08-07T10:34:48.660Z,98729.31
2022-08-07T10:37:59.934Z,98722.97
2022-08-07T10:40:30.397Z,98718.56
2022-08-07T10:43:34.429Z,98724.47
2022-08-07T10:46:13.058Z,98713.03
2022-08-07T10:48:59.766Z,98705.91
2022-08-07T10:52:12.673Z,98702.56
2022-08-07T10:54:53.533Z,98705.03
2022-08-07T10:57:46.240Z,98696.91
2022-08-07T11:00:36.415Z,98692.25
2022-08-07T11:03:51.329Z,98694.13
2022-08-07T11:06:26.947Z,98696.44
2022-08-07T11:09:11.035Z,98694.63
2022-08-07T11:11:51.801Z,98696.38
2022-08-07T11:14:45.534Z,98699.25
2022-08-07T11:17:43.400Z,98693.38
2022-08-07T11:20:24.602Z,98694.84
2022-08-07T11:23:26.185Z,98694.09
2022-08-07T11:26:38.595Z,98687.91
2022-08-07T11:29:42.004Z,98689.47
2022-08-07T11:32:40.421Z,98682.91
2022-08-07T11:35:26.783Z,98682.47
2022-08-07T11:38:21.450Z,98680.94
2022-08-07T11:40:59.480Z,98679.50
2022-08-07T11:43:41.708Z,98677.09
2022-08-07T11:46:41.981Z,98666.91
2022-08-07T11:50:18.632Z,98667.38
2022-08-07T11:52:37.700Z,98663.94
2022-08-07T11:56:25.937Z,98663.84
2022-08-07T11:58:49.683Z,98665.91
2022-08-07T12:01:59.183Z,98661.16
2022-08-07T12:04:40.132Z,98661.59
2022-08-07T12:07:53.391Z,98656.13
2022-08-07T12:10:34.970Z,98657.47
2022-08-07T12:13:36.656Z,98650.03
2022-08-07T12:16:10.852Z,98646.00
2022-08-07T12:19:05.233Z,98648.19
2022-08-07T12:22:37.547Z,98650.06
2022-08-07T12:26:21.371Z,98646.31
2022-08-07T12:28:31.329Z,98632.59
2022-08-07T12:31:05.436Z,98633.94
2022-08-07T12:34:00.788Z,98632.78
2022-08-07T12:36:33.190Z,98631.91
2022-08-07T12:39:41.176Z,98630.69
2022-08-07T12:41:53.804Z,98625.13
2022-08-07T12:44:21.710Z,98621.50
2022-08-07T12:47:21.902Z,98631.19
2022-08-07T12:50:39.015Z,98619.16
2022-08-07T12:53:22.418Z,98626.94
2022-08-07T12:56:03.933Z,98628.66
2022-08-07T12:58:39.247Z,98628.31
2022-08-07T13:01:17.192Z,98628.31
2022-08-07T13:04:13.631Z,98617.78
2022-08-07T13:08:14.096Z,98621.78
2022-08-07T13:10:37.921Z,98616.03
2022-08-07T13:13:48.647Z,98614.19
2022-08-07T13:16:16.951Z,98616.91
2022-08-07T13:19:34.870Z,98616.97
2022-08-07T13:22:26.901Z,98601.97
2022-08-07T13:25:02.379Z,98618.69
2022-08-07T13:28:11.299Z,98610.34
2022-08-07T13:30:43.466Z,98611.16
2022-08-07T13:34:31.278Z,98606.94
2022-08-07T13:36:49.126Z,98609.91
2022-08-07T13:40:35.414Z,98599.25
2022-08-07T13:42:41.120Z,98601.72
2022-08-07T13:46:06.905Z,98592.88
2022-08-07T13:48:07.789Z,98592.50
2022-08-07T13:50:44.731Z,98591.75
2022-08-07T13:53:35.944Z,98578.03
2022-08-07T13:56:36.342Z,98577.22
2022-08-07T13:59:15.744Z,98577.22
2022-08-07T14:02:03.563Z,98575.94
2022-08-07T14:04:36.713Z,98575.94
2022-08-07T14:07:09.721Z,98569.66
2022-08-07T14:10:00.883Z,98569.84
2022-08-07T14:12:49.329Z,98575.75
2022-08-07T14:15:28.636Z,98576.97
2022-08-07T14:18:57.100Z,98572.31
2022-08-07T14:22:03.093Z,98576.59
2022-08-07T14:24:33.513Z,98573.22
2022-08-07T14:28:09.446Z,98538.69
2022-08-07T14:30:09.587Z,98571.88
2022-08-07T14:32:51.278Z,98564.66
2022-08-07T14:35:44.852Z,98567.41
2022-08-07T14:41:12.463Z,98546.03
2022-08-07T14:43:57.743Z,98545.22
2022-08-07T14:46:31.078Z,98555.94
2022-08-07T14:49:17.242Z,98544.34
2022-08-07T14:52:03.730Z,98557.38
2022-08-07T14:54:35.815Z,98544.88
2022-08-07T14:57:28.838Z,98543.19
2022-08-07T15:00:06.645Z,98539.63
2022-08-07T15:02:35.213Z,98532.28
2022-08-07T15:05:04.795Z,98538.25
2022-08-07T15:10:40.602Z,98532.25
2022-08-07T15:13:35.966Z,98531.00
2022-08-07T15:16:20.162Z,98527.25
2022-08-07T15:19:05.620Z,98520.38
2022-08-07T15:25:12.790Z,98518.03
2022-08-07T15:27:24.993Z,98521.13
2022-08-07T15:30:10.334Z,98520.50
2022-08-07T15:32:50.675Z,98517.63
2022-08-07T15:36:01.826Z,98512.16
2022-08-07T15:41:23.357Z,98514.69
2022-08-07T15:44:07.031Z,98513.44
2022-08-07T15:46:38.507Z,98505.66
2022-08-07T15:49:16.283Z,98515.13
2022-08-07T15:54:34.125Z,98516.13
2022-08-07T15:57:03.127Z,98516.94
2022-08-07T15:59:39.045Z,98507.28
2022-08-07T16:02:08.499Z,98506.41
2022-08-07T16:04:37.939Z,98505.56
2022-08-07T16:08:32.211Z,98497.38
2022-08-07T16:10:05.778Z,98519.03
2022-08-07T16:13:17.969Z,98518.78
2022-08-07T16:16:47.899Z,98519.63
2022-08-07T16:19:41.802Z,98516.38
2022-08-07T16:22:55.692Z,98515.16
2022-08-07T16:25:52.513Z,98520.97
2022-08-07T16:30:06.405Z,98518.91
2022-08-07T16:31:50.199Z,98522.72
2022-08-07T16:34:09.984Z,98521.53
2022-08-07T16:37:01.720Z,98519.03
2022-08-07T16:39:49.289Z,98524.63
2022-08-07T16:42:53.273Z,98524.56
2022-08-07T16:46:40.621Z,98526.34
2022-08-07T16:49:10.405Z,98522.09
2022-08-07T16:51:57.512Z,98521.25
2022-08-07T16:54:55.618Z,98523.25
2022-08-07T16:58:01.843Z,98522.94
2022-08-07T17:00:39.199Z,98534.19
2022-08-07T17:03:18.659Z,98529.38
2022-08-07T17:06:30.300Z,98528.00
2022-08-07T17:09:13.941Z,98531.31
2022-08-07T17:12:04.017Z,98505.38
2022-08-07T17:14:56.380Z,98538.00
2022-08-07T17:17:44.313Z,98530.41
2022-08-07T17:20:29.927Z,98534.78
2022-08-07T17:22:57.542Z,98532.34
2022-08-07T17:25:47.653Z,98534.91
2022-08-07T17:28:31.203Z,98531.53
2022-08-07T17:31:16.061Z,98521.31
2022-08-07T17:34:15.188Z,98535.16
2022-08-07T17:36:57.634Z,98525.53
2022-08-07T17:40:09.065Z,98540.31
2022-08-07T17:42:59.292Z,98547.84
2022-08-07T17:45:42.225Z,98546.25
2022-08-07T17:48:30.823Z,98549.16
2022-08-07T17:51:21.614Z,98549.91
2022-08-07T17:54:06.571Z,98546.16
2022-08-07T17:56:54.465Z,98555.00
2022-08-07T17:59:25.956Z,98555.16
2022-08-07T18:02:11.393Z,98564.47
2022-08-07T18:05:02.327Z,98564.47
2022-08-07T18:08:04.801Z,98569.91
2022-08-07T18:12:08.420Z,98575.47
2022-08-07T18:13:54.023Z,98579.69
2022-08-07T18:16:35.001Z,98587.84
2022-08-07T18:21:09.541Z,98578.09
2022-08-07T18:22:11.420Z,98594.03
2022-08-07T18:24:42.045Z,98588.69
2022-08-07T18:27:39.086Z,98591.75
2022-08-07T18:30:31.169Z,98595.59
2022-08-07T18:33:15.455Z,98594.66
2022-08-07T18:36:12.731Z,98588.47
2022-08-07T18:38:57.914Z,98595.50
2022-08-07T18:41:47.339Z,98598.69
2022-08-07T18:44:27.309Z,98594.16
2022-08-07T18:47:20.955Z,98602.03
2022-08-07T18:50:37.778Z,98602.78
2022-08-07T18:53:13.165Z,98603.44
2022-08-07T18:56:08.712Z,98602.59
2022-08-07T18:59:10.517Z,98606.09
2022-08-07T19:02:33.947Z,98604.47
2022-08-07T19:05:15.823Z,98612.63
2022-08-07T19:08:10.863Z,98608.88
2022-08-07T19:10:51.404Z,98618.13
2022-08-07T19:13:45.112Z,98619.19
2022-08-07T19:17:04.397Z,98622.41
2022-08-07T19:19:49.326Z,98645.56
2022-08-07T19:22:30.749Z,98646.56
2022-08-07T19:25:06.551Z,98638.50
2022-08-07T19:28:57.062Z,98664.78
2022-08-07T19:31:05.189Z,98674.28
2022-08-07T19:33:18.852Z,98670.28
2022-08-07T19:36:01.779Z,98677.56
2022-08-07T19:38:32.283Z,98681.44
2022-08-07T19:41:00.640Z,98685.00
2022-08-07T19:43:50.005Z,98678.22
2022-08-07T19:46:22.451Z,98674.00
2022-08-07T19:49:02.659Z,98682.94
2022-08-07T19:51:52.251Z,98687.34
2022-08-07T19:54:30.946Z,98688.00
2022-08-07T19:58:00.721Z,98686.13
2022-08-07T19:59:55.904Z,98690.69
2022-08-07T20:02:52.211Z,98695.75
2022-08-07T20:05:25.327Z,98688.66
2022-08-07T20:07:59.492Z,98691.69
2022-08-07T20:10:55.116Z,98681.91
2022-08-07T20:13:38.492Z,98690.38
2022-08-07T20:16:32.180Z,98687.97
2022-08-07T20:18:59.262Z,98688.13
2022-08-07T20:21:42.144Z,98699.19
2022-08-07T20:24:20.599Z,98707.47
2022-08-07T20:26:52.289Z,98715.31
2022-08-07T20:29:48.031Z,98702.56
2022-08-07T20:32:25.526Z,98713.78
2022-08-07T20:34:56.107Z,98710.94
2022-08-07T20:37:37.069Z,98717.19
2022-08-07T20:40:32.319Z,98709.16
2022-08-07T20:43:03.347Z,98711.03
2022-08-07T20:46:27.061Z,98715.41
2022-08-07T20:48:30.571Z,98707.44
2022-08-07T20:51:04.056Z,98707.38
2022-08-07T20:54:03.222Z,98705.84
2022-08-07T20:56:28.926Z,98714.75
2022-08-07T20:59:01.500Z,98710.09
2022-08-07T21:01:29.545Z,98711.22
2022-08-07T21:04:22.755Z,98708.00
2022-08-07T21:06:55.291Z,98706.84
2022-08-07T21:09:51.636Z,98712.91
2022-08-07T21:12:28.916Z,98718.06
2022-08-07T21:15:02.484Z,98718.72
2022-08-07T21:18:03.695Z,98730.84
2022-08-07T21:20:26.896Z,98724.22
2022-08-07T21:22:59.124Z,98735.19
2022-08-07T21:26:01.489Z,98735.78
2022-08-07T21:28:51.744Z,98733.00
2022-08-07T21:32:47.368Z,98738.72
2022-08-07T21:35:02.378Z,98735.88
2022-08-07T21:37:58.289Z,98744.47
2022-08-07T21:40:38.130Z,98735.44
2022-08-07T21:43:10.773Z,98742.59
2022-08-07T21:46:09.664Z,98745.88
2022-08-07T21:49:03.313Z,98751.41
2022-08-07T21:51:54.526Z,98741.19
2022-08-07T21:54:34.426Z,98756.25
2022-08-07T21:57:39.416Z,98762.63
2022-08-07T22:00:22.809Z,98763.84
2022-08-07T22:02:55.749Z,98761.59
2022-08-07T22:05:44.264Z,98766.75
2022-08-07T22:08:18.906Z,98763.78
2022-08-07T22:10:50.982Z,98776.69
2022-08-07T22:13:24.190Z,98773.16
2022-08-07T22:16:38.900Z,98743.09
2022-08-07T22:19:30.028Z,98768.19
2022-08-07T22:22:20.803Z,98762.25
2022-08-07T22:25:08.667Z,98764.66
2022-08-07T22:28:29.634Z,98752.63
2022-08-07T22:30:58.570Z,98759.44
2022-08-07T22:33:52.478Z,98773.06
2022-08-07T22:36:27.266Z,98774.78
2022-08-07T22:39:07.459Z,98774.78
2022-08-07T22:42:04.095Z,98771.66
2022-08-07T22:44:34.489Z,98761.84
2022-08-07T22:47:23.136Z,98765.28
2022-08-07T22:49:54.748Z,98774.75
2022-08-07T22:52:40.005Z,98771.66
2022-08-07T22:55:37.133Z,98762.56
2022-08-07T22:58:28.168Z,98783.13
2022-08-07T23:01:49.812Z,98780.16
2022-08-07T23:04:57.874Z,98792.06
2022-08-07T23:07:44.806Z,98797.03
2022-08-07T23:10:36.412Z,98790.19
2022-08-07T23:13:12.079Z,98798.28
2022-08-07T23:16:05.495Z,98794.03
2022-08-07T23:19:39.021Z,98794.59
2022-08-07T23:22:59.222Z,98802.66
2022-08-07T23:25:44.231Z,98803.63
2022-08-07T23:28:29.096Z,98799.91
2022-08-07T23:32:49.325Z,98797.31
2022-08-07T23:34:34.806Z,98808.16
2022-08-07T23:37:37.387Z,98800.38
2022-08-07T23:40:33.257Z,98797.09
2022-08-07T23:43:21.003Z,98798.69
2022-08-07T23:46:27.169Z,98799.22
2022-08-07T23:49:19.498Z,98796.22
2022-08-07T23:53:00.300Z,98795.31
2022-08-07T23:54:53.097Z,98799.84
2022-08-07T23:57:25.280Z,98795.50
